Time;durP1;ratioP1;P1;durP2;ratioP2;P2;SDS_P1;SDS_P2;PMS_P1;PMS_P2;Temp;Humidity;BMP_temperature;BMP_pressure;BME280_temperature;BME280_humidity;BME280_pressure;Samples;Min_cycle;Max_cycle;Signal;HPM_P1;HPM_P2
2021/11/04 00:01:44;;;;;;;1.83;0.75;;;;;;;;;;5072833;28;20013;-36
2021/11/04 00:04:09;;;;;;;0.93;0.55;;;;;;;;;;5073848;28;20379;-39
2021/11/04 00:06:35;;;;;;;1.45;0.82;;;;;;;;;;5074055;28;20369;-36
2021/11/04 00:09:00;;;;;;;0.80;0.75;;;;;;;;;;5073804;28;20093;-41
2021/11/04 00:11:26;;;;;;;1.05;0.63;;;;;;;;;;5055662;28;20028;-36
2021/11/04 00:13:52;;;;;;;2.50;0.50;;;;;;;;;;5074100;28;20035;-36
2021/11/04 00:16:17;;;;;;;6.30;0.80;;;;;;;;;;5073667;28;20526;-36
2021/11/04 00:18:42;;;;;;;1.42;1.10;;;;;;;;;;5073654;28;20024;-36
2021/11/04 00:21:08;;;;;;;0.70;0.52;;;;;;;;;;5073860;28;20027;-36
2021/11/04 00:23:33;;;;;;;2.75;0.60;;;;;;;;;;5072348;28;20032;-37
2021/11/04 00:26:01;;;;;;;3.22;0.80;;;;;;;;;;5073715;28;20028;-36
2021/11/04 00:28:27;;;;;;;0.60;0.60;;;;;;;;;;5073347;28;20035;-36
2021/11/04 00:30:52;;;;;;;1.30;0.90;;;;;;;;;;5073442;28;20103;-36
2021/11/04 00:33:18;;;;;;;0.75;0.75;;;;;;;;;;5073484;28;20648;-36
2021/11/04 00:35:43;;;;;;;2.88;0.75;;;;;;;;;;5073137;28;20080;-37
2021/11/04 00:38:09;;;;;;;1.45;1.05;;;;;;;;;;5073553;28;20033;-36
2021/11/04 00:40:34;;;;;;;1.83;0.82;;;;;;;;;;5073394;28;20512;-36
2021/11/04 00:43:00;;;;;;;6.70;0.80;;;;;;;;;;5073270;28;20055;-36
2021/11/04 00:45:25;;;;;;;0.88;0.80;;;;;;;;;;5072928;28;20017;-37
2021/11/04 00:47:51;;;;;;;0.80;0.80;;;;;;;;;;5071840;28;20028;-37
2021/11/04 00:50:17;;;;;;;0.65;0.65;;;;;;;;;;5073125;28;20025;-36
2021/11/04 00:52:43;;;;;;;0.73;0.52;;;;;;;;;;5072904;28;20066;-36
2021/11/04 00:55:09;;;;;;;0.77;0.68;;;;;;;;;;5054936;28;20136;-37
2021/11/04 00:57:35;;;;;;;1.15;0.68;;;;;;;;;;5073088;28;20064;-36
2021/11/04 01:00:00;;;;;;;2.55;0.63;;;;;;;;;;5072767;28;20425;-36
2021/11/04 01:02:26;;;;;;;1.73;0.45;;;;;;;;;;5072750;28;20086;-36
2021/11/04 01:04:51;;;;;;;0.73;0.45;;;;;;;;;;5072713;28;20507;-36
2021/11/04 01:07:17;;;;;;;0.93;0.52;;;;;;;;;;5072942;28;20035;-36
2021/11/04 01:09:43;;;;;;;1.13;0.90;;;;;;;;;;5072623;28;20095;-37
2021/11/04 01:12:08;;;;;;;1.77;0.70;;;;;;;;;;5072503;28;20043;-36
2021/11/04 01:14:34;;;;;;;2.75;0.93;;;;;;;;;;5072391;28;20063;-37
2021/11/04 01:16:59;;;;;;;1.30;0.60;;;;;;;;;;5072688;28;20040;-36
2021/11/04 01:19:25;;;;;;;0.80;0.80;;;;;;;;;;5072431;28;20047;-36
2021/11/04 01:21:50;;;;;;;0.75;0.60;;;;;;;;;;5054437;28;20032;-36
2021/11/04 01:24:16;;;;;;;1.02;0.65;;;;;;;;;;5072523;28;20513;-36
2021/11/04 01:26:41;;;;;;;0.75;0.50;;;;;;;;;;5054276;28;20028;-36
2021/11/04 01:29:07;;;;;;;0.47;0.47;;;;;;;;;;5072205;28;20375;-36
2021/11/04 01:31:32;;;;;;;0.93;0.63;;;;;;;;;;5072188;28;20028;-36
2021/11/04 01:33:58;;;;;;;0.90;0.50;;;;;;;;;;5072109;28;20020;-36
2021/11/04 01:36:23;;;;;;;2.20;0.77;;;;;;;;;;5071791;28;20048;-36
2021/11/04 01:38:49;;;;;;;2.97;0.57;;;;;;;;;;5072094;28;20686;-36
2021/11/04 01:41:16;;;;;;;1.30;0.77;;;;;;;;;;5072090;28;20043;-36
2021/11/04 01:43:41;;;;;;;2.85;0.75;;;;;;;;;;5071874;28;20429;-36
2021/11/04 01:46:07;;;;;;;0.70;0.50;;;;;;;;;;5071481;28;20108;-36
2021/11/04 01:48:32;;;;;;;2.35;0.77;;;;;;;;;;5071858;28;20012;-36
2021/11/04 01:50:58;;;;;;;4.40;0.55;;;;;;;;;;5071817;28;20360;-36
2021/11/04 01:53:23;;;;;;;2.15;0.60;;;;;;;;;;5054055;28;20013;-36
2021/11/04 01:55:49;;;;;;;0.77;0.43;;;;;;;;;;5071596;28;20111;-36
2021/11/04 01:58:15;;;;;;;1.10;0.63;;;;;;;;;;5071740;28;20024;-36
2021/11/04 02:00:41;;;;;;;1.38;0.60;;;;;;;;;;5072002;28;20040;-36
2021/11/04 02:03:21;;;;;;;1.77;0.95;;;;;;;;;;5071675;28;20422;-36
2021/11/04 02:05:46;;;;;;;1.38;0.52;;;;;;;;;;5071658;28;20032;-36
2021/11/04 02:08:15;;;;;;;0.63;0.63;;;;;;;;;;5071605;28;20390;-36
2021/11/04 02:10:42;;;;;;;1.30;0.47;;;;;;;;;;5071775;28;20454;-36
2021/11/04 02:13:11;;;;;;;0.77;0.38;;;;;;;;;;5071606;28;20145;-36
2021/11/04 02:15:37;;;;;;;1.10;0.52;;;;;;;;;;5071604;28;20067;-37
2021/11/04 02:18:07;;;;;;;6.85;0.73;;;;;;;;;;5071538;28;20366;-36
2021/11/04 02:20:47;;;;;;;0.40;0.40;;;;;;;;;;5071457;28;20033;-36
2021/11/04 02:23:17;;;;;;;1.58;1.48;;;;;;;;;;5071561;28;20778;-37
2021/11/04 02:25:45;;;;;;;1.08;0.80;;;;;;;;;;5071311;28;20644;-36
2021/11/04 02:28:13;;;;;;;0.90;0.28;;;;;;;;;;5071727;28;20033;-36
2021/11/04 02:30:39;;;;;;;1.02;0.70;;;;;;;;;;5071658;28;20028;-36
2021/11/04 02:33:06;;;;;;;1.27;0.43;;;;;;;;;;5071401;28;20057;-37
2021/11/04 02:35:31;;;;;;;1.05;0.95;;;;;;;;;;5070996;28;20040;-36
2021/11/04 02:37:57;;;;;;;1.75;0.60;;;;;;;;;;5071405;28;20114;-36
2021/11/04 02:40:23;;;;;;;1.25;0.90;;;;;;;;;;5071427;28;20103;-36
2021/11/04 02:42:50;;;;;;;0.47;0.40;;;;;;;;;;5071326;28;20036;-36
2021/11/04 02:45:18;;;;;;;5.75;0.85;;;;;;;;;;5071317;28;20502;-36
2021/11/04 02:47:43;;;;;;;0.73;0.47;;;;;;;;;;5071152;28;20025;-36
2021/11/04 02:50:09;;;;;;;0.73;0.60;;;;;;;;;;5071247;28;20569;-37
2021/11/04 02:52:35;;;;;;;4.93;0.73;;;;;;;;;;5071364;28;20386;-36
2021/11/04 02:55:05;;;;;;;6.15;0.60;;;;;;;;;;5070985;28;20029;-36
2021/11/04 02:57:31;;;;;;;2.20;1.00;;;;;;;;;;5073288;28;20122;-36
2021/11/04 02:59:57;;;;;;;1.83;0.73;;;;;;;;;;5075089;28;20028;-36
2021/11/04 03:02:23;;;;;;;1.42;0.45;;;;;;;;;;5075279;28;20066;-36
2021/11/04 03:04:48;;;;;;;1.02;0.30;;;;;;;;;;5075245;28;20047;-36
2021/11/04 03:07:14;;;;;;;3.05;0.60;;;;;;;;;;5073697;28;20031;-36
2021/11/04 03:09:39;;;;;;;4.05;0.60;;;;;;;;;;5074840;28;20017;-37
2021/11/04 03:12:06;;;;;;;3.67;0.40;;;;;;;;;;5074855;28;20041;-36
2021/11/04 03:14:31;;;;;;;0.70;0.70;;;;;;;;;;5074696;28;20509;-36
2021/11/04 03:16:58;;;;;;;0.75;0.30;;;;;;;;;;5074862;28;20036;-36
2021/11/04 03:19:25;;;;;;;3.65;0.52;;;;;;;;;;5074932;28;20019;-36
2021/11/04 03:21:52;;;;;;;3.75;0.63;;;;;;;;;;5074685;28;20036;-36
2021/11/04 03:24:19;;;;;;;1.30;0.68;;;;;;;;;;5074566;28;20024;-36
2021/11/04 03:26:46;;;;;;;7.70;0.30;;;;;;;;;;5057012;28;20260;-36
2021/11/04 03:29:11;;;;;;;5.47;0.50;;;;;;;;;;5056677;28;20063;-36
2021/11/04 03:31:38;;;;;;;4.40;0.60;;;;;;;;;;5074715;28;20374;-36
2021/11/04 03:34:04;;;;;;;0.38;0.32;;;;;;;;;;5074717;28;20052;-36
2021/11/04 03:36:30;;;;;;;1.65;0.52;;;;;;;;;;5074124;28;20055;-36
2021/11/04 03:38:56;;;;;;;4.22;2.20;;;;;;;;;;5056452;28;20028;-36
2021/11/04 03:41:22;;;;;;;2.97;0.93;;;;;;;;;;5074327;28;20043;-36
2021/11/04 03:43:49;;;;;;;0.95;0.45;;;;;;;;;;5074512;28;20020;-36
2021/11/04 03:46:15;;;;;;;0.68;0.22;;;;;;;;;;5074341;28;20036;-36
2021/11/04 03:48:41;;;;;;;1.40;0.52;;;;;;;;;;5074086;28;20016;-36
2021/11/04 03:51:07;;;;;;;3.63;0.47;;;;;;;;;;5074184;28;20568;-37
2021/11/04 03:53:34;;;;;;;0.85;0.32;;;;;;;;;;5074044;28;20025;-36
2021/11/04 03:56:00;;;;;;;11.90;0.88;;;;;;;;;;5073932;28;20123;-36
2021/11/04 03:58:26;;;;;;;4.32;0.68;;;;;;;;;;5073870;28;20111;-36
2021/11/04 04:00:53;;;;;;;4.70;1.23;;;;;;;;;;5073989;28;20078;-36
2021/11/04 04:03:19;;;;;;;3.40;0.65;;;;;;;;;;5074036;28;20040;-36
2021/11/04 04:05:57;;;;;;;3.03;0.90;;;;;;;;;;5073862;28;20438;-36
2021/11/04 04:08:22;;;;;;;4.78;0.55;;;;;;;;;;5073405;28;20028;-36
2021/11/04 04:10:48;;;;;;;2.28;0.70;;;;;;;;;;5073893;28;20555;-36
2021/11/04 04:13:13;;;;;;;3.90;0.52;;;;;;;;;;5072444;28;20505;-37
2021/11/04 04:15:39;;;;;;;8.05;1.27;;;;;;;;;;5055681;28;20111;-37
2021/11/04 04:18:04;;;;;;;4.88;0.95;;;;;;;;;;5073712;28;20024;-37
2021/11/04 04:20:30;;;;;;;2.00;0.82;;;;;;;;;;5073513;28;20024;-36
2021/11/04 04:22:55;;;;;;;2.83;1.25;;;;;;;;;;5055838;28;20028;-36
2021/11/04 04:25:21;;;;;;;2.33;0.55;;;;;;;;;;5073536;28;20059;-37
2021/11/04 04:27:46;;;;;;;6.32;0.80;;;;;;;;;;5073309;28;20436;-36
2021/11/04 04:30:12;;;;;;;3.38;0.70;;;;;;;;;;5073503;28;20016;-37
2021/11/04 04:32:37;;;;;;;2.25;0.60;;;;;;;;;;5073650;28;20032;-36
2021/11/04 04:35:03;;;;;;;3.10;0.43;;;;;;;;;;5071872;28;20089;-36
2021/11/04 04:37:29;;;;;;;0.82;0.40;;;;;;;;;;5073280;28;20048;-36
2021/11/04 04:39:55;;;;;;;1.25;0.50;;;;;;;;;;5073287;28;20029;-37
2021/11/04 04:42:20;;;;;;;1.85;0.45;;;;;;;;;;5073470;28;20052;-36
2021/11/04 04:44:46;;;;;;;3.50;0.60;;;;;;;;;;5073056;28;20772;-36
2021/11/04 04:47:11;;;;;;;4.07;1.05;;;;;;;;;;5073103;28;20040;-36
2021/11/04 04:49:37;;;;;;;7.18;0.70;;;;;;;;;;5073230;28;20024;-36
2021/11/04 04:52:03;;;;;;;2.15;0.52;;;;;;;;;;5073067;28;20395;-36
2021/11/04 04:54:29;;;;;;;5.05;0.73;;;;;;;;;;5072865;28;20048;-36
2021/11/04 04:56:55;;;;;;;2.60;0.35;;;;;;;;;;5055039;28;20501;-36
2021/11/04 04:59:20;;;;;;;2.25;0.50;;;;;;;;;;5073105;28;20027;-36
2021/11/04 05:01:47;;;;;;;0.65;0.65;;;;;;;;;;5072696;28;20482;-36
2021/11/04 05:04:12;;;;;;;2.65;0.45;;;;;;;;;;5072778;28;20059;-36
2021/11/04 05:06:37;;;;;;;5.38;0.77;;;;;;;;;;5072706;28;20052;-36
2021/11/04 05:09:03;;;;;;;3.33;0.35;;;;;;;;;;5072638;28;20024;-36
2021/11/04 05:11:28;;;;;;;1.30;0.30;;;;;;;;;;5072614;28;20028;-36
2021/11/04 05:13:54;;;;;;;9.00;0.60;;;;;;;;;;5072542;28;20025;-37
2021/11/04 05:16:19;;;;;;;13.20;1.02;;;;;;;;;;5072453;28;20047;-36
2021/11/04 05:18:45;;;;;;;3.85;0.60;;;;;;;;;;5072292;28;20401;-37
2021/11/04 05:21:11;;;;;;;0.55;0.30;;;;;;;;;;5070727;28;20471;-36
2021/11/04 05:23:36;;;;;;;3.20;1.23;;;;;;;;;;5072372;28;20123;-36
2021/11/04 05:26:02;;;;;;;4.78;1.30;;;;;;;;;;5072366;28;20469;-36
2021/11/04 05:28:27;;;;;;;4.45;1.00;;;;;;;;;;5072410;28;20062;-37
2021/11/04 05:30:53;;;;;;;3.65;1.50;;;;;;;;;;5072257;28;20394;-36
2021/11/04 05:33:19;;;;;;;3.40;1.27;;;;;;;;;;5072490;28;20020;-36
2021/11/04 05:35:44;;;;;;;3.83;0.98;;;;;;;;;;5071911;28;20383;-36
2021/11/04 05:38:10;;;;;;;3.08;0.80;;;;;;;;;;5072102;28;20082;-36
2021/11/04 05:40:37;;;;;;;5.88;1.23;;;;;;;;;;5071933;28;20371;-36
2021/11/04 05:43:02;;;;;;;3.83;1.73;;;;;;;;;;5071997;28;20103;-36
2021/11/04 05:45:28;;;;;;;3.10;1.45;;;;;;;;;;5071749;28;20108;-37
2021/11/04 05:47:53;;;;;;;6.70;2.28;;;;;;;;;;5071971;28;20024;-36
2021/11/04 05:50:20;;;;;;;5.70;1.80;;;;;;;;;;5071980;28;20457;-36
2021/11/04 05:52:46;;;;;;;3.13;1.67;;;;;;;;;;5071718;28;20054;-36
2021/11/04 05:55:11;;;;;;;2.58;1.73;;;;;;;;;;5071787;28;20036;-37
2021/11/04 05:57:37;;;;;;;2.88;1.15;;;;;;;;;;5072023;28;20052;-37
2021/11/04 06:00:03;;;;;;;3.58;1.65;;;;;;;;;;5071714;28;20029;-36
2021/11/04 06:02:37;;;;;;;7.93;2.08;;;;;;;;;;5071721;28;20013;-36
2021/11/04 06:05:03;;;;;;;7.00;2.05;;;;;;;;;;5071617;28;20029;-36
2021/11/04 06:07:28;;;;;;;4.43;1.80;;;;;;;;;;5071583;28;20035;-36
2021/11/04 06:09:54;;;;;;;5.47;2.03;;;;;;;;;;5071943;28;20471;-37
2021/11/04 06:12:20;;;;;;;5.45;2.00;;;;;;;;;;5071886;28;20024;-36
2021/11/04 06:14:45;;;;;;;4.88;2.15;;;;;;;;;;5071421;28;20029;-36
2021/11/04 06:17:11;;;;;;;5.60;2.85;;;;;;;;;;5071571;28;20027;-36
2021/11/04 06:19:36;;;;;;;7.78;1.98;;;;;;;;;;5053467;28;20486;-36
2021/11/04 06:22:02;;;;;;;5.07;1.90;;;;;;;;;;5071743;28;20031;-36
2021/11/04 06:24:28;;;;;;;4.80;3.10;;;;;;;;;;5071595;28;20055;-36
2021/11/04 06:26:54;;;;;;;8.02;3.05;;;;;;;;;;5071437;28;20056;-36
2021/11/04 06:29:20;;;;;;;10.07;2.90;;;;;;;;;;5071269;28;20432;-37
2021/11/04 06:31:45;;;;;;;10.77;3.00;;;;;;;;;;5071469;28;20029;-36
2021/11/04 06:34:11;;;;;;;6.95;3.85;;;;;;;;;;5071253;28;20422;-37
2021/11/04 06:36:36;;;;;;;6.07;4.32;;;;;;;;;;5070975;28;20398;-36
2021/11/04 06:39:03;;;;;;;8.77;3.42;;;;;;;;;;5071329;28;20119;-36
2021/11/04 06:41:28;;;;;;;3.60;2.08;;;;;;;;;;5071241;28;20024;-37
2021/11/04 06:43:54;;;;;;;7.30;3.60;;;;;;;;;;5069965;28;20024;-36
2021/11/04 06:46:24;;;;;;;11.40;4.63;;;;;;;;;;5071313;28;20161;-36
2021/11/04 06:48:52;;;;;;;9.70;4.38;;;;;;;;;;5071347;28;20429;-35
2021/11/04 06:51:18;;;;;;;6.15;3.53;;;;;;;;;;5071268;28;20029;-36
2021/11/04 06:53:45;;;;;;;11.48;4.28;;;;;;;;;;5071063;28;20471;-35
2021/11/04 06:56:11;;;;;;;7.55;4.53;;;;;;;;;;5071084;28;20029;-35
2021/11/04 06:58:38;;;;;;;10.13;4.30;;;;;;;;;;5071109;28;20032;-36
2021/11/04 07:01:14;;;;;;;9.90;4.97;;;;;;;;;;5071438;28;20098;-35
2021/11/04 07:03:47;;;;;;;14.38;5.07;;;;;;;;;;5071232;28;20028;-36
2021/11/04 07:06:19;;;;;;;10.25;5.00;;;;;;;;;;5053254;28;20059;-36
2021/11/04 07:08:53;;;;;;;9.70;4.95;;;;;;;;;;5071054;28;20081;-36
2021/11/04 07:11:20;;;;;;;9.55;5.03;;;;;;;;;;5071035;28;20081;-36
2021/11/04 07:13:48;;;;;;;10.77;4.85;;;;;;;;;;5070935;28;20025;-36
2021/11/04 07:16:15;;;;;;;8.02;4.88;;;;;;;;;;5070864;28;20036;-35
2021/11/04 07:18:41;;;;;;;10.55;5.10;;;;;;;;;;5071058;28;20155;-36
2021/11/04 07:21:13;;;;;;;8.25;4.80;;;;;;;;;;5052901;28;20558;-35
2021/11/04 07:23:42;;;;;;;7.32;4.20;;;;;;;;;;5071031;28;20029;-35
2021/11/04 07:26:08;;;;;;;10.68;4.10;;;;;;;;;;5070853;28;20390;-35
2021/11/04 07:28:38;;;;;;;11.13;5.47;;;;;;;;;;5070788;28;20025;-35
2021/11/04 07:31:07;;;;;;;7.13;4.97;;;;;;;;;;5070713;28;20556;-35
2021/11/04 07:33:33;;;;;;;9.55;4.90;;;;;;;;;;5070637;28;20364;-36
2021/11/04 07:35:59;;;;;;;10.45;5.53;;;;;;;;;;5070544;28;20055;-36
2021/11/04 07:38:26;;;;;;;10.95;4.95;;;;;;;;;;5070734;28;20078;-35
2021/11/04 07:40:52;;;;;;;11.10;5.32;;;;;;;;;;5070765;28;20030;-35
2021/11/04 07:43:18;;;;;;;7.43;5.05;;;;;;;;;;5072459;28;20021;-35
2021/11/04 07:45:43;;;;;;;7.75;5.05;;;;;;;;;;5074482;28;20125;-35
2021/11/04 07:48:09;;;;;;;11.02;4.63;;;;;;;;;;5074243;28;20090;-38
2021/11/04 07:50:35;;;;;;;9.25;5.07;;;;;;;;;;5074181;28;20048;-35
2021/11/04 07:53:01;;;;;;;7.57;4.43;;;;;;;;;;5074410;28;20379;-36
2021/11/04 07:55:26;;;;;;;7.70;4.85;;;;;;;;;;5074313;28;20074;-36
2021/11/04 07:57:52;;;;;;;6.50;4.07;;;;;;;;;;5074045;28;20072;-35
2021/11/04 08:00:19;;;;;;;10.25;5.30;;;;;;;;;;5074044;28;20013;-36
2021/11/04 08:02:45;;;;;;;10.55;5.28;;;;;;;;;;5074005;28;20107;-35
2021/11/04 08:05:12;;;;;;;8.18;4.55;;;;;;;;;;5073859;28;20107;-36
2021/11/04 08:07:38;;;;;;;6.53;3.97;;;;;;;;;;5074075;28;20024;-37
2021/11/04 08:10:04;;;;;;;10.60;4.97;;;;;;;;;;5073868;28;20072;-36
2021/11/04 08:12:29;;;;;;;8.15;4.68;;;;;;;;;;5073772;28;20070;-36
2021/11/04 08:14:55;;;;;;;8.82;5.07;;;;;;;;;;5073671;28;20056;-36
2021/11/04 08:17:21;;;;;;;7.65;5.15;;;;;;;;;;5073722;28;20044;-36
2021/11/04 08:19:47;;;;;;;7.35;4.53;;;;;;;;;;5073619;28;20020;-36
2021/11/04 08:22:12;;;;;;;11.73;4.55;;;;;;;;;;5073595;28;20069;-36
2021/11/04 08:24:38;;;;;;;7.55;3.95;;;;;;;;;;5073752;28;20013;-35
2021/11/04 08:27:03;;;;;;;6.57;4.55;;;;;;;;;;5073644;28;20486;-36
2021/11/04 08:29:29;;;;;;;6.30;3.80;;;;;;;;;;5073341;28;20127;-35
2021/11/04 08:31:55;;;;;;;7.28;3.90;;;;;;;;;;5073475;28;20025;-36
2021/11/04 08:34:20;;;;;;;6.30;3.35;;;;;;;;;;5073210;28;20382;-36
2021/11/04 08:36:45;;;;;;;6.28;3.47;;;;;;;;;;5073238;28;20044;-35
2021/11/04 08:39:13;;;;;;;6.88;3.45;;;;;;;;;;5073359;28;20035;-36
2021/11/04 08:41:39;;;;;;;6.57;4.00;;;;;;;;;;5073240;28;20133;-35
2021/11/04 08:44:04;;;;;;;5.20;3.50;;;;;;;;;;5073214;28;20470;-35
2021/11/04 08:46:30;;;;;;;4.72;3.22;;;;;;;;;;5073185;28;20120;-35
2021/11/04 08:48:56;;;;;;;7.57;4.18;;;;;;;;;;5073125;28;20036;-35
2021/11/04 08:51:21;;;;;;;10.50;4.32;;;;;;;;;;5073048;28;20095;-36
2021/11/04 08:53:47;;;;;;;7.03;2.92;;;;;;;;;;5073200;28;20027;-35
2021/11/04 08:56:12;;;;;;;5.43;2.65;;;;;;;;;;5072823;28;20490;-36
2021/11/04 08:58:39;;;;;;;6.57;2.45;;;;;;;;;;5072912;28;20025;-36
2021/11/04 09:01:05;;;;;;;3.97;2.78;;;;;;;;;;5072922;28;20091;-36
2021/11/04 09:03:30;;;;;;;3.95;3.17;;;;;;;;;;5072668;28;20052;-36
2021/11/04 09:05:56;;;;;;;3.85;2.65;;;;;;;;;;5072675;28;20083;-36
2021/11/04 09:08:26;;;;;;;5.80;2.53;;;;;;;;;;5073036;28;20044;-36
2021/11/04 09:10:52;;;;;;;3.85;2.30;;;;;;;;;;5071278;28;20380;-36
2021/11/04 09:13:17;;;;;;;3.08;1.80;;;;;;;;;;5054659;28;20029;-36
2021/11/04 09:15:43;;;;;;;3.90;2.33;;;;;;;;;;5072502;28;20070;-36
2021/11/04 09:18:09;;;;;;;6.25;2.03;;;;;;;;;;5072543;28;20066;-36
2021/11/04 09:20:34;;;;;;;2.72;2.03;;;;;;;;;;5072463;28;20096;-36
2021/11/04 09:23:00;;;;;;;2.53;2.28;;;;;;;;;;5054502;28;20021;-36
2021/11/04 09:25:25;;;;;;;1.73;1.23;;;;;;;;;;5072574;28;20033;-35
2021/11/04 09:27:52;;;;;;;6.15;1.67;;;;;;;;;;5072492;28;20029;-38
2021/11/04 09:30:18;;;;;;;1.85;1.67;;;;;;;;;;5072269;28;20112;-35
2021/11/04 09:32:44;;;;;;;2.58;1.52;;;;;;;;;;5072440;28;20142;-35
2021/11/04 09:35:10;;;;;;;4.65;1.67;;;;;;;;;;5072094;28;20398;-35
2021/11/04 09:37:37;;;;;;;3.03;1.77;;;;;;;;;;5072350;28;20036;-35
2021/11/04 09:40:06;;;;;;;3.92;1.58;;;;;;;;;;5072367;28;20029;-36
2021/11/04 09:42:32;;;;;;;5.20;1.85;;;;;;;;;;5071970;28;20032;-36
2021/11/04 09:45:05;;;;;;;4.10;2.00;;;;;;;;;;5072256;28;20439;-36
2021/11/04 09:47:36;;;;;;;5.43;1.73;;;;;;;;;;5071675;28;20036;-35
2021/11/04 09:50:07;;;;;;;7.20;1.52;;;;;;;;;;5071994;28;20055;-36
2021/11/04 09:52:33;;;;;;;4.78;1.08;;;;;;;;;;5071896;28;20099;-35
2021/11/04 09:54:59;;;;;;;1.55;1.42;;;;;;;;;;5071687;28;20028;-36
2021/11/04 09:57:25;;;;;;;2.92;1.83;;;;;;;;;;5071827;28;20107;-36
2021/11/04 09:59:51;;;;;;;2.50;1.17;;;;;;;;;;5053890;28;20055;-36
2021/11/04 10:02:21;;;;;;;3.40;1.17;;;;;;;;;;5071780;28;20058;-36
2021/11/04 10:04:47;;;;;;;4.78;1.33;;;;;;;;;;5071643;28;20038;-35
2021/11/04 10:07:13;;;;;;;2.40;1.70;;;;;;;;;;5071296;28;20028;-36
2021/11/04 10:09:39;;;;;;;6.30;1.45;;;;;;;;;;5071595;28;20041;-36
2021/11/04 10:12:11;;;;;;;4.95;1.17;;;;;;;;;;5071678;28;20027;-35
2021/11/04 10:14:37;;;;;;;3.83;1.08;;;;;;;;;;5071759;28;20040;-36
2021/11/04 10:17:03;;;;;;;5.57;0.88;;;;;;;;;;5071494;28;20420;-35
2021/11/04 10:19:39;;;;;;;2.42;0.90;;;;;;;;;;5071627;28;20051;-35
2021/11/04 10:22:05;;;;;;;0.85;0.55;;;;;;;;;;5071920;28;20032;-35
2021/11/04 10:24:30;;;;;;;4.43;0.98;;;;;;;;;;5071310;28;20520;-36
2021/11/04 10:26:56;;;;;;;1.75;1.48;;;;;;;;;;5071555;28;20020;-36
2021/11/04 10:29:26;;;;;;;4.78;0.88;;;;;;;;;;5071677;28;20407;-36
2021/11/04 10:31:56;;;;;;;5.80;1.08;;;;;;;;;;5071400;28;20052;-36
2021/11/04 10:34:25;;;;;;;2.60;1.23;;;;;;;;;;5071210;28;20040;-36
2021/11/04 10:36:51;;;;;;;1.70;0.60;;;;;;;;;;5071488;28;20040;-36
2021/11/04 10:39:17;;;;;;;4.90;1.20;;;;;;;;;;5071642;28;20093;-36
2021/11/04 10:41:43;;;;;;;5.28;0.73;;;;;;;;;;5071236;28;20446;-36
2021/11/04 10:44:15;;;;;;;2.80;1.38;;;;;;;;;;5071515;28;20078;-35
2021/11/04 10:46:44;;;;;;;6.30;0.70;;;;;;;;;;5071190;28;20025;-36
2021/11/04 10:49:10;;;;;;;8.38;0.73;;;;;;;;;;5071253;28;20489;-36
2021/11/04 10:51:35;;;;;;;2.55;0.50;;;;;;;;;;5071410;28;20037;-35
2021/11/04 10:54:05;;;;;;;7.53;0.82;;;;;;;;;;5071179;28;20021;-36
2021/11/04 10:56:32;;;;;;;5.88;0.73;;;;;;;;;;5071382;28;20049;-36
2021/11/04 10:58:59;;;;;;;3.08;0.70;;;;;;;;;;5071336;28;20847;-36
2021/11/04 11:01:31;;;;;;;1.45;0.50;;;;;;;;;;5071194;28;20064;-36
2021/11/04 11:04:05;;;;;;;1.55;0.50;;;;;;;;;;5071268;28;20024;-36
2021/11/04 11:06:38;;;;;;;2.22;0.70;;;;;;;;;;5071045;28;20044;-35
2021/11/04 11:09:05;;;;;;;0.63;0.32;;;;;;;;;;5071119;28;20016;-35
2021/11/04 11:11:31;;;;;;;5.88;1.30;;;;;;;;;;5071262;28;20052;-36
2021/11/04 11:13:57;;;;;;;3.90;0.80;;;;;;;;;;5070954;28;20564;-36
2021/11/04 11:16:23;;;;;;;4.00;0.73;;;;;;;;;;5070915;28;20107;-35
2021/11/04 11:18:48;;;;;;;1.35;0.60;;;;;;;;;;5073516;28;20104;-36
2021/11/04 11:21:14;;;;;;;5.95;0.75;;;;;;;;;;5074790;28;20016;-36
2021/11/04 11:23:42;;;;;;;1.83;0.95;;;;;;;;;;5074633;28;20033;-36
2021/11/04 11:26:10;;;;;;;4.03;0.60;;;;;;;;;;5074680;28;20375;-35
2021/11/04 11:28:38;;;;;;;4.50;0.60;;;;;;;;;;5074639;28;20036;-36
2021/11/04 11:31:09;;;;;;;7.22;0.52;;;;;;;;;;5056663;28;20421;-36
2021/11/04 11:33:43;;;;;;;1.92;0.38;;;;;;;;;;5074587;28;20257;-36
2021/11/04 11:36:19;;;;;;;5.68;0.57;;;;;;;;;;5074392;28;20051;-37
2021/11/04 11:39:06;;;;;;;0.35;0.32;;;;;;;;;;5074448;28;20048;-35
2021/11/04 11:41:50;;;;;;;4.07;0.38;;;;;;;;;;5074425;28;20036;-36
2021/11/04 11:44:31;;;;;;;2.78;0.75;;;;;;;;;;5074580;28;20417;-36
2021/11/04 11:47:04;;;;;;;3.58;0.35;;;;;;;;;;5056940;28;20033;-36
2021/11/04 11:49:31;;;;;;;1.15;0.88;;;;;;;;;;5074355;28;20038;-36
2021/11/04 11:51:57;;;;;;;0.63;0.45;;;;;;;;;;5074236;28;20032;-35
2021/11/04 11:54:43;;;;;;;0.22;0.20;;;;;;;;;;5074163;28;20024;-36
2021/11/04 11:57:09;;;;;;;3.65;1.20;;;;;;;;;;5059866;28;20051;-36
2021/11/04 11:59:59;;;;;;;3.17;0.52;;;;;;;;;;5074125;28;20438;-36
2021/11/04 12:02:54;;;;;;;0.40;0.40;;;;;;;;;;5074077;28;20032;-35
2021/11/04 12:05:20;;;;;;;1.38;0.47;;;;;;;;;;5074070;28;20119;-36
2021/11/04 12:07:49;;;;;;;0.32;0.25;;;;;;;;;;5074231;28;20120;-36
2021/11/04 12:10:29;;;;;;;5.72;0.50;;;;;;;;;;5073861;28;20413;-36
2021/11/04 12:12:55;;;;;;;3.35;0.93;;;;;;;;;;5073727;28;20604;-36
2021/11/04 12:15:21;;;;;;;3.25;0.52;;;;;;;;;;5073749;28;20108;-36
2021/11/04 12:18:05;;;;;;;0.65;0.30;;;;;;;;;;5073746;28;20386;-35
2021/11/04 12:20:30;;;;;;;0.25;0.20;;;;;;;;;;5074047;28;20111;-36
2021/11/04 12:22:56;;;;;;;0.63;0.50;;;;;;;;;;5073604;28;20509;-36
2021/11/04 12:25:21;;;;;;;0.65;0.55;;;;;;;;;;5073674;28;20592;-35
2021/11/04 12:27:47;;;;;;;6.35;0.40;;;;;;;;;;5073561;28;20024;-35
2021/11/04 12:30:16;;;;;;;0.63;0.43;;;;;;;;;;5073231;28;20056;-35
2021/11/04 12:32:41;;;;;;;3.00;0.50;;;;;;;;;;5073994;28;20017;-36
2021/11/04 12:35:07;;;;;;;0.93;0.40;;;;;;;;;;5073122;28;20430;-36
2021/11/04 12:37:33;;;;;;;0.80;0.28;;;;;;;;;;5073364;28;20032;-36
2021/11/04 12:39:59;;;;;;;2.90;0.52;;;;;;;;;;5073269;28;20025;-36
2021/11/04 12:42:25;;;;;;;2.08;0.82;;;;;;;;;;5073621;28;20029;-36
2021/11/04 12:44:51;;;;;;;0.93;0.52;;;;;;;;;;5073316;28;20035;-35
2021/11/04 12:47:18;;;;;;;4.05;0.50;;;;;;;;;;5073298;28;20028;-36
2021/11/04 12:49:43;;;;;;;0.50;0.40;;;;;;;;;;5073116;28;20086;-36
2021/11/04 12:52:10;;;;;;;2.45;1.17;;;;;;;;;;5073352;28;20020;-36
2021/11/04 12:54:37;;;;;;;2.65;0.40;;;;;;;;;;5072920;28;20036;-35
2021/11/04 12:57:05;;;;;;;1.20;0.50;;;;;;;;;;5072991;28;20029;-36
2021/11/04 12:59:34;;;;;;;1.13;0.47;;;;;;;;;;5072890;28;20031;-36
2021/11/04 13:02:02;;;;;;;1.48;0.60;;;;;;;;;;5072877;28;20031;-35
2021/11/04 13:04:30;;;;;;;1.58;0.60;;;;;;;;;;5072767;28;20491;-35
2021/11/04 13:06:56;;;;;;;2.08;0.25;;;;;;;;;;5072657;28;20486;-36
2021/11/04 13:09:24;;;;;;;1.10;0.85;;;;;;;;;;5072830;28;20548;-36
2021/11/04 13:12:03;;;;;;;1.02;0.57;;;;;;;;;;5072974;28;20025;-35
2021/11/04 13:14:29;;;;;;;3.72;0.60;;;;;;;;;;5072626;28;20032;-36
2021/11/04 13:16:54;;;;;;;1.60;0.63;;;;;;;;;;5072487;28;20035;-36
2021/11/04 13:19:23;;;;;;;1.33;0.50;;;;;;;;;;5072555;28;20056;-36
2021/11/04 13:21:49;;;;;;;3.95;0.90;;;;;;;;;;5072456;28;20024;-36
2021/11/04 13:24:16;;;;;;;0.95;0.40;;;;;;;;;;5054652;28;20101;-36
2021/11/04 13:26:42;;;;;;;0.60;0.60;;;;;;;;;;5054377;28;20041;-36
2021/11/04 13:29:08;;;;;;;1.50;0.50;;;;;;;;;;5072410;28;20571;-36
2021/11/04 13:31:33;;;;;;;2.20;0.65;;;;;;;;;;5072319;28;20025;-36
2021/11/04 13:34:00;;;;;;;1.55;0.45;;;;;;;;;;5072702;28;20081;-35
2021/11/04 13:36:27;;;;;;;2.50;0.60;;;;;;;;;;5054165;28;20044;-36
2021/11/04 13:38:55;;;;;;;3.65;0.60;;;;;;;;;;5072108;28;20103;-35
2021/11/04 13:41:25;;;;;;;3.60;1.17;;;;;;;;;;5071507;28;20020;-36
2021/11/04 13:43:52;;;;;;;2.85;0.40;;;;;;;;;;5071955;28;20024;-36
2021/11/04 13:46:18;;;;;;;5.38;0.38;;;;;;;;;;5072121;28;20043;-36
2021/11/04 13:48:45;;;;;;;1.77;0.30;;;;;;;;;;5071885;28;20115;-36
2021/11/04 13:51:29;;;;;;;1.58;0.35;;;;;;;;;;5072018;28;20016;-36
2021/11/04 13:54:14;;;;;;;1.45;0.43;;;;;;;;;;5071824;28;20067;-36
2021/11/04 13:56:44;;;;;;;3.75;0.57;;;;;;;;;;5071929;28;20060;-36
2021/11/04 13:59:33;;;;;;;0.43;0.30;;;;;;;;;;5071868;28;20035;-36
2021/11/04 14:02:03;;;;;;;0.60;0.30;;;;;;;;;;5072009;28;20032;-36
2021/11/04 14:04:28;;;;;;;2.15;0.68;;;;;;;;;;5071981;28;20379;-35
2021/11/04 14:06:54;;;;;;;0.85;0.40;;;;;;;;;;5071853;28;20032;-36
2021/11/04 14:09:24;;;;;;;0.40;0.17;;;;;;;;;;5071672;28;20063;-36
2021/11/04 14:12:07;;;;;;;2.30;0.60;;;;;;;;;;5071667;28;20028;-36
2021/11/04 14:14:43;;;;;;;1.20;0.40;;;;;;;;;;5071698;28;20482;-36
2021/11/04 14:17:09;;;;;;;0.30;0.22;;;;;;;;;;5071408;28;20433;-35
2021/11/04 14:19:35;;;;;;;0.50;0.28;;;;;;;;;;5071628;28;20020;-36
2021/11/04 14:22:01;;;;;;;1.75;0.45;;;;;;;;;;5071942;28;20028;-35
2021/11/04 14:24:28;;;;;;;1.02;0.35;;;;;;;;;;5071294;28;20024;-36
2021/11/04 14:26:54;;;;;;;0.77;0.40;;;;;;;;;;5071668;28;20094;-36
2021/11/04 14:29:20;;;;;;;3.55;0.40;;;;;;;;;;5071383;28;20421;-36
2021/11/04 14:31:46;;;;;;;0.75;0.20;;;;;;;;;;5071338;28;20078;-35
2021/11/04 14:34:12;;;;;;;0.45;0.25;;;;;;;;;;5071431;28;20024;-36
2021/11/04 14:36:38;;;;;;;0.40;0.20;;;;;;;;;;5071103;28;20048;-37
2021/11/04 14:39:04;;;;;;;0.55;0.47;;;;;;;;;;5071277;28;20104;-36
2021/11/04 14:41:30;;;;;;;1.40;0.30;;;;;;;;;;5071350;28;20033;-36
2021/11/04 14:43:56;;;;;;;0.28;0.28;;;;;;;;;;5071218;28;20051;-35